sensor_id;sensor_type;location;lat;lon;timestamp;P1;durP1;ratioP1;P2;durP2;ratioP2
71148;SDS011;59072;42.144;25.200;2022-10-31T00:00:16;13.95;;;7.88;;
71148;SDS011;59072;42.144;25.200;2022-10-31T00:02:42;12.57;;;6.85;;
71148;SDS011;59072;42.144;25.200;2022-10-31T00:05:07;14.30;;;7.20;;
71148;SDS011;59072;42.144;25.200;2022-10-31T00:07:33;14.30;;;7.70;;
71148;SDS011;59072;42.144;25.200;2022-10-31T00:09:58;17.58;;;7.05;;
71148;SDS011;59072;42.144;25.200;2022-10-31T00:12:24;14.98;;;7.07;;
71148;SDS011;59072;42.144;25.200;2022-10-31T00:14:49;12.77;;;6.88;;
71148;SDS011;59072;42.144;25.200;2022-10-31T00:17:14;13.13;;;6.55;;
71148;SDS011;59072;42.144;25.200;2022-10-31T00:19:40;14.20;;;6.72;;
71148;SDS011;59072;42.144;25.200;2022-10-31T00:22:05;15.35;;;6.97;;
71148;SDS011;59072;42.144;25.200;2022-10-31T00:24:31;17.23;;;8.30;;
71148;SDS011;59072;42.144;25.200;2022-10-31T00:26:56;14.45;;;8.13;;
71148;SDS011;59072;42.144;25.200;2022-10-31T00:29:21;19.85;;;8.57;;
71148;SDS011;59072;42.144;25.200;2022-10-31T00:31:47;16.45;;;8.43;;
71148;SDS011;59072;42.144;25.200;2022-10-31T00:34:12;16.80;;;8.43;;
71148;SDS011;59072;42.144;25.200;2022-10-31T00:36:38;16.35;;;8.02;;
71148;SDS011;59072;42.144;25.200;2022-10-31T00:39:03;19.52;;;8.68;;
71148;SDS011;59072;42.144;25.200;2022-10-31T00:41:28;17.65;;;7.80;;
71148;SDS011;59072;42.144;25.200;2022-10-31T00:43:54;16.67;;;8.13;;
71148;SDS011;59072;42.144;25.200;2022-10-31T00:46:20;18.33;;;7.93;;
71148;SDS011;59072;42.144;25.200;2022-10-31T00:48:45;21.35;;;8.15;;
71148;SDS011;59072;42.144;25.200;2022-10-31T00:51:11;15.93;;;8.15;;
71148;SDS011;59072;42.144;25.200;2022-10-31T00:53:36;17.15;;;8.82;;
71148;SDS011;59072;42.144;25.200;2022-10-31T00:56:02;21.67;;;9.10;;
71148;SDS011;59072;42.144;25.200;2022-10-31T00:58:28;19.98;;;8.15;;
71148;SDS011;59072;42.144;25.200;2022-10-31T01:00:53;17.77;;;8.88;;
71148;SDS011;59072;42.144;25.200;2022-10-31T01:03:25;19.48;;;8.45;;
71148;SDS011;59072;42.144;25.200;2022-10-31T01:08:26;17.13;;;8.07;;
71148;SDS011;59072;42.144;25.200;2022-10-31T01:13:29;12.73;;;6.45;;
71148;SDS011;59072;42.144;25.200;2022-10-31T01:15:55;14.70;;;7.30;;
71148;SDS011;59072;42.144;25.200;2022-10-31T01:18:22;13.00;;;6.22;;
71148;SDS011;59072;42.144;25.200;2022-10-31T01:20:50;14.18;;;7.60;;
71148;SDS011;59072;42.144;25.200;2022-10-31T01:23:22;11.55;;;6.80;;
71148;SDS011;59072;42.144;25.200;2022-10-31T01:25:48;13.48;;;7.20;;
71148;SDS011;59072;42.144;25.200;2022-10-31T01:28:13;12.80;;;7.05;;
71148;SDS011;59072;42.144;25.200;2022-10-31T01:30:39;15.30;;;6.85;;
71148;SDS011;59072;42.144;25.200;2022-10-31T01:33:04;14.85;;;7.25;;
71148;SDS011;59072;42.144;25.200;2022-10-31T01:35:29;14.55;;;6.82;;
71148;SDS011;59072;42.144;25.200;2022-10-31T01:37:55;12.13;;;6.68;;
71148;SDS011;59072;42.144;25.200;2022-10-31T01:40:20;13.25;;;7.30;;
71148;SDS011;59072;42.144;25.200;2022-10-31T01:42:45;10.90;;;6.57;;
71148;SDS011;59072;42.144;25.200;2022-10-31T01:45:11;12.80;;;6.53;;
71148;SDS011;59072;42.144;25.200;2022-10-31T01:47:40;14.57;;;6.90;;
71148;SDS011;59072;42.144;25.200;2022-10-31T01:50:23;12.27;;;6.28;;
71148;SDS011;59072;42.144;25.200;2022-10-31T01:52:56;12.23;;;7.78;;
71148;SDS011;59072;42.144;25.200;2022-10-31T01:55:25;14.03;;;6.60;;
71148;SDS011;59072;42.144;25.200;2022-10-31T01:57:53;12.27;;;6.70;;
71148;SDS011;59072;42.144;25.200;2022-10-31T02:00:22;14.93;;;6.40;;
71148;SDS011;59072;42.144;25.200;2022-10-31T02:02:48;13.68;;;7.40;;
71148;SDS011;59072;42.144;25.200;2022-10-31T02:05:20;13.27;;;6.90;;
71148;SDS011;59072;42.144;25.200;2022-10-31T02:10:16;13.77;;;6.68;;
71148;SDS011;59072;42.144;25.200;2022-10-31T02:12:41;13.68;;;6.70;;
71148;SDS011;59072;42.144;25.200;2022-10-31T02:15:08;12.55;;;6.85;;
71148;SDS011;59072;42.144;25.200;2022-10-31T02:17:34;12.20;;;6.38;;
71148;SDS011;59072;42.144;25.200;2022-10-31T02:22:42;16.63;;;7.18;;
71148;SDS011;59072;42.144;25.200;2022-10-31T02:31:26;15.07;;;7.50;;
71148;SDS011;59072;42.144;25.200;2022-10-31T02:34:19;14.15;;;7.47;;
71148;SDS011;59072;42.144;25.200;2022-10-31T02:44:48;10.88;;;6.47;;
71148;SDS011;59072;42.144;25.200;2022-10-31T02:47:37;12.90;;;6.65;;
71148;SDS011;59072;42.144;25.200;2022-10-31T02:50:07;12.32;;;6.70;;
71148;SDS011;59072;42.144;25.200;2022-10-31T02:52:37;15.68;;;7.53;;
71148;SDS011;59072;42.144;25.200;2022-10-31T02:55:13;14.63;;;6.65;;
71148;SDS011;59072;42.144;25.200;2022-10-31T02:57:55;15.70;;;6.93;;
71148;SDS011;59072;42.144;25.200;2022-10-31T03:00:26;16.42;;;7.38;;
71148;SDS011;59072;42.144;25.200;2022-10-31T03:16:23;18.27;;;8.50;;
71148;SDS011;59072;42.144;25.200;2022-10-31T03:19:14;14.45;;;7.80;;
71148;SDS011;59072;42.144;25.200;2022-10-31T03:24:10;14.35;;;8.05;;
71148;SDS011;59072;42.144;25.200;2022-10-31T03:26:39;16.05;;;8.90;;
71148;SDS011;59072;42.144;25.200;2022-10-31T03:29:10;13.82;;;8.25;;
71148;SDS011;59072;42.144;25.200;2022-10-31T03:31:51;15.05;;;7.90;;
71148;SDS011;59072;42.144;25.200;2022-10-31T03:34:21;17.42;;;8.88;;
71148;SDS011;59072;42.144;25.200;2022-10-31T03:36:48;16.85;;;8.90;;
71148;SDS011;59072;42.144;25.200;2022-10-31T03:39:17;15.30;;;8.00;;
71148;SDS011;59072;42.144;25.200;2022-10-31T03:41:47;15.60;;;8.90;;
71148;SDS011;59072;42.144;25.200;2022-10-31T03:44:27;16.15;;;8.20;;
71148;SDS011;59072;42.144;25.200;2022-10-31T03:46:55;19.65;;;8.80;;
71148;SDS011;59072;42.144;25.200;2022-10-31T03:49:20;18.90;;;9.20;;
71148;SDS011;59072;42.144;25.200;2022-10-31T03:54:23;16.95;;;9.13;;
71148;SDS011;59072;42.144;25.200;2022-10-31T04:01:52;14.88;;;9.55;;
71148;SDS011;59072;42.144;25.200;2022-10-31T04:04:21;15.65;;;8.70;;
71148;SDS011;59072;42.144;25.200;2022-10-31T04:06:47;18.58;;;9.82;;
71148;SDS011;59072;42.144;25.200;2022-10-31T04:09:15;20.95;;;9.70;;
71148;SDS011;59072;42.144;25.200;2022-10-31T04:11:49;25.50;;;9.98;;
71148;SDS011;59072;42.144;25.200;2022-10-31T04:14:17;18.00;;;9.38;;
71148;SDS011;59072;42.144;25.200;2022-10-31T04:16:43;21.05;;;9.73;;
71148;SDS011;59072;42.144;25.200;2022-10-31T04:19:09;19.65;;;10.90;;
71148;SDS011;59072;42.144;25.200;2022-10-31T04:21:36;18.58;;;10.05;;
71148;SDS011;59072;42.144;25.200;2022-10-31T04:24:01;16.77;;;9.50;;
71148;SDS011;59072;42.144;25.200;2022-10-31T04:26:27;15.38;;;8.68;;
71148;SDS011;59072;42.144;25.200;2022-10-31T04:28:52;18.70;;;8.98;;
71148;SDS011;59072;42.144;25.200;2022-10-31T04:31:18;16.35;;;7.75;;
71148;SDS011;59072;42.144;25.200;2022-10-31T04:33:43;17.98;;;9.05;;
71148;SDS011;59072;42.144;25.200;2022-10-31T04:36:09;15.90;;;10.20;;
71148;SDS011;59072;42.144;25.200;2022-10-31T04:38:34;17.25;;;10.35;;
71148;SDS011;59072;42.144;25.200;2022-10-31T04:40:59;16.98;;;9.32;;
71148;SDS011;59072;42.144;25.200;2022-10-31T04:43:25;28.15;;;11.32;;
71148;SDS011;59072;42.144;25.200;2022-10-31T04:45:50;18.30;;;8.63;;
71148;SDS011;59072;42.144;25.200;2022-10-31T04:48:16;20.27;;;9.77;;
71148;SDS011;59072;42.144;25.200;2022-10-31T04:50:42;16.13;;;9.23;;
71148;SDS011;59072;42.144;25.200;2022-10-31T04:53:07;18.05;;;9.10;;
71148;SDS011;59072;42.144;25.200;2022-10-31T04:55:33;22.48;;;10.13;;
71148;SDS011;59072;42.144;25.200;2022-10-31T04:58:00;18.48;;;8.95;;
71148;SDS011;59072;42.144;25.200;2022-10-31T05:00:26;14.65;;;8.43;;
71148;SDS011;59072;42.144;25.200;2022-10-31T05:02:52;13.75;;;7.40;;
71148;SDS011;59072;42.144;25.200;2022-10-31T05:05:26;35.38;;;8.73;;
71148;SDS011;59072;42.144;25.200;2022-10-31T05:07:53;30.27;;;8.65;;
71148;SDS011;59072;42.144;25.200;2022-10-31T05:10:20;22.98;;;9.52;;
71148;SDS011;59072;42.144;25.200;2022-10-31T05:12:48;21.30;;;9.05;;
71148;SDS011;59072;42.144;25.200;2022-10-31T05:15:15;21.95;;;9.27;;
71148;SDS011;59072;42.144;25.200;2022-10-31T05:17:41;104.68;;;15.45;;
71148;SDS011;59072;42.144;25.200;2022-10-31T05:20:07;59.03;;;11.15;;
71148;SDS011;59072;42.144;25.200;2022-10-31T05:22:33;39.60;;;12.05;;
71148;SDS011;59072;42.144;25.200;2022-10-31T05:24:58;40.58;;;13.35;;
71148;SDS011;59072;42.144;25.200;2022-10-31T05:27:24;34.22;;;13.48;;
71148;SDS011;59072;42.144;25.200;2022-10-31T05:29:49;26.90;;;12.30;;
71148;SDS011;59072;42.144;25.200;2022-10-31T05:32:15;24.25;;;11.77;;
71148;SDS011;59072;42.144;25.200;2022-10-31T05:34:40;29.95;;;11.75;;
71148;SDS011;59072;42.144;25.200;2022-10-31T05:37:05;35.08;;;10.52;;
71148;SDS011;59072;42.144;25.200;2022-10-31T05:39:31;25.60;;;11.10;;
71148;SDS011;59072;42.144;25.200;2022-10-31T05:41:56;24.92;;;11.75;;
71148;SDS011;59072;42.144;25.200;2022-10-31T05:44:22;25.65;;;14.52;;
71148;SDS011;59072;42.144;25.200;2022-10-31T05:46:47;29.77;;;12.57;;
71148;SDS011;59072;42.144;25.200;2022-10-31T05:49:13;27.38;;;11.18;;
71148;SDS011;59072;42.144;25.200;2022-10-31T05:51:38;23.58;;;10.25;;
71148;SDS011;59072;42.144;25.200;2022-10-31T05:54:04;21.75;;;10.57;;
71148;SDS011;59072;42.144;25.200;2022-10-31T05:56:29;23.92;;;9.52;;
71148;SDS011;59072;42.144;25.200;2022-10-31T05:58:54;24.42;;;9.93;;
71148;SDS011;59072;42.144;25.200;2022-10-31T06:01:20;23.80;;;10.02;;
71148;SDS011;59072;42.144;25.200;2022-10-31T06:03:45;20.20;;;10.93;;
71148;SDS011;59072;42.144;25.200;2022-10-31T06:06:11;30.48;;;11.93;;
71148;SDS011;59072;42.144;25.200;2022-10-31T06:08:36;26.38;;;10.68;;
71148;SDS011;59072;42.144;25.200;2022-10-31T06:11:02;28.30;;;10.30;;
71148;SDS011;59072;42.144;25.200;2022-10-31T06:13:27;21.05;;;9.13;;
71148;SDS011;59072;42.144;25.200;2022-10-31T06:15:53;24.98;;;10.38;;
71148;SDS011;59072;42.144;25.200;2022-10-31T06:18:18;23.63;;;9.75;;
71148;SDS011;59072;42.144;25.200;2022-10-31T06:20:44;28.48;;;10.85;;
71148;SDS011;59072;42.144;25.200;2022-10-31T06:23:09;29.20;;;12.77;;
71148;SDS011;59072;42.144;25.200;2022-10-31T06:25:34;21.67;;;10.43;;
71148;SDS011;59072;42.144;25.200;2022-10-31T06:28:00;33.13;;;11.05;;
71148;SDS011;59072;42.144;25.200;2022-10-31T06:30:25;21.50;;;9.32;;
71148;SDS011;59072;42.144;25.200;2022-10-31T06:32:51;26.45;;;9.60;;
71148;SDS011;59072;42.144;25.200;2022-10-31T06:35:17;22.00;;;9.38;;
71148;SDS011;59072;42.144;25.200;2022-10-31T06:37:42;19.80;;;8.80;;
71148;SDS011;59072;42.144;25.200;2022-10-31T06:40:15;15.82;;;8.43;;
71148;SDS011;59072;42.144;25.200;2022-10-31T06:42:40;17.60;;;8.68;;
71148;SDS011;59072;42.144;25.200;2022-10-31T06:45:06;22.23;;;8.95;;
71148;SDS011;59072;42.144;25.200;2022-10-31T06:47:31;19.50;;;8.73;;
71148;SDS011;59072;42.144;25.200;2022-10-31T06:49:57;31.92;;;17.30;;
71148;SDS011;59072;42.144;25.200;2022-10-31T06:52:22;38.38;;;25.60;;
71148;SDS011;59072;42.144;25.200;2022-10-31T06:54:48;30.52;;;20.25;;
71148;SDS011;59072;42.144;25.200;2022-10-31T06:57:13;29.98;;;17.95;;
71148;SDS011;59072;42.144;25.200;2022-10-31T06:59:39;25.25;;;16.77;;
71148;SDS011;59072;42.144;25.200;2022-10-31T07:02:04;28.77;;;12.88;;
71148;SDS011;59072;42.144;25.200;2022-10-31T07:04:30;27.98;;;10.65;;
71148;SDS011;59072;42.144;25.200;2022-10-31T07:06:55;17.60;;;7.57;;
71148;SDS011;59072;42.144;25.200;2022-10-31T07:09:20;16.45;;;7.57;;
71148;SDS011;59072;42.144;25.200;2022-10-31T07:11:46;16.20;;;7.38;;
71148;SDS011;59072;42.144;25.200;2022-10-31T07:14:12;16.15;;;6.88;;
71148;SDS011;59072;42.144;25.200;2022-10-31T07:16:37;17.40;;;7.43;;
71148;SDS011;59072;42.144;25.200;2022-10-31T07:19:03;22.50;;;10.43;;
71148;SDS011;59072;42.144;25.200;2022-10-31T07:21:28;15.73;;;7.03;;
71148;SDS011;59072;42.144;25.200;2022-10-31T07:23:54;10.25;;;5.20;;
71148;SDS011;59072;42.144;25.200;2022-10-31T07:26:19;11.88;;;5.65;;
71148;SDS011;59072;42.144;25.200;2022-10-31T07:28:48;11.60;;;5.80;;
71148;SDS011;59072;42.144;25.200;2022-10-31T07:31:13;10.85;;;5.60;;
71148;SDS011;59072;42.144;25.200;2022-10-31T07:33:38;12.35;;;5.38;;
71148;SDS011;59072;42.144;25.200;2022-10-31T07:36:04;14.15;;;6.53;;
71148;SDS011;59072;42.144;25.200;2022-10-31T07:38:30;13.60;;;5.05;;
71148;SDS011;59072;42.144;25.200;2022-10-31T07:40:55;8.95;;;4.15;;
71148;SDS011;59072;42.144;25.200;2022-10-31T07:43:20;14.48;;;5.32;;
71148;SDS011;59072;42.144;25.200;2022-10-31T07:45:50;9.68;;;3.60;;
71148;SDS011;59072;42.144;25.200;2022-10-31T07:48:17;9.75;;;4.25;;
71148;SDS011;59072;42.144;25.200;2022-10-31T07:50:42;11.98;;;4.03;;
71148;SDS011;59072;42.144;25.200;2022-10-31T07:53:09;10.25;;;4.05;;
71148;SDS011;59072;42.144;25.200;2022-10-31T07:55:36;12.05;;;4.18;;
71148;SDS011;59072;42.144;25.200;2022-10-31T07:58:03;8.13;;;3.55;;
71148;SDS011;59072;42.144;25.200;2022-10-31T08:00:33;8.52;;;3.85;;
71148;SDS011;59072;42.144;25.200;2022-10-31T08:03:00;7.73;;;3.63;;
71148;SDS011;59072;42.144;25.200;2022-10-31T08:05:28;10.85;;;3.88;;
71148;SDS011;59072;42.144;25.200;2022-10-31T08:07:54;9.40;;;3.75;;
71148;SDS011;59072;42.144;25.200;2022-10-31T08:10:21;11.32;;;4.07;;
71148;SDS011;59072;42.144;25.200;2022-10-31T08:12:46;8.20;;;4.20;;
71148;SDS011;59072;42.144;25.200;2022-10-31T08:15:12;13.88;;;4.45;;
71148;SDS011;59072;42.144;25.200;2022-10-31T08:17:37;11.05;;;3.95;;
71148;SDS011;59072;42.144;25.200;2022-10-31T08:20:04;12.73;;;4.18;;
71148;SDS011;59072;42.144;25.200;2022-10-31T08:22:30;10.13;;;4.38;;
71148;SDS011;59072;42.144;25.200;2022-10-31T08:24:56;7.13;;;3.50;;
71148;SDS011;59072;42.144;25.200;2022-10-31T08:27:21;8.60;;;3.75;;
71148;SDS011;59072;42.144;25.200;2022-10-31T08:29:47;10.85;;;4.60;;
71148;SDS011;59072;42.144;25.200;2022-10-31T08:32:12;12.43;;;3.88;;
71148;SDS011;59072;42.144;25.200;2022-10-31T08:34:38;6.53;;;4.03;;
71148;SDS011;59072;42.144;25.200;2022-10-31T08:37:03;11.23;;;4.38;;
71148;SDS011;59072;42.144;25.200;2022-10-31T08:39:29;9.43;;;3.33;;
71148;SDS011;59072;42.144;25.200;2022-10-31T08:41:54;12.00;;;3.53;;
71148;SDS011;59072;42.144;25.200;2022-10-31T08:44:20;14.45;;;4.10;;
71148;SDS011;59072;42.144;25.200;2022-10-31T08:46:45;8.98;;;3.90;;
71148;SDS011;59072;42.144;25.200;2022-10-31T08:49:11;11.70;;;4.40;;
71148;SDS011;59072;42.144;25.200;2022-10-31T08:51:36;24.08;;;7.75;;
71148;SDS011;59072;42.144;25.200;2022-10-31T08:54:02;13.80;;;4.97;;
71148;SDS011;59072;42.144;25.200;2022-10-31T08:56:27;16.15;;;8.13;;
71148;SDS011;59072;42.144;25.200;2022-10-31T08:58:53;9.18;;;3.45;;
71148;SDS011;59072;42.144;25.200;2022-10-31T09:01:18;8.98;;;3.25;;
71148;SDS011;59072;42.144;25.200;2022-10-31T09:03:44;10.43;;;4.38;;
71148;SDS011;59072;42.144;25.200;2022-10-31T09:06:09;8.73;;;2.90;;
71148;SDS011;59072;42.144;25.200;2022-10-31T09:08:35;7.40;;;3.00;;
71148;SDS011;59072;42.144;25.200;2022-10-31T09:11:00;9.27;;;3.20;;
71148;SDS011;59072;42.144;25.200;2022-10-31T09:13:26;5.47;;;3.00;;
71148;SDS011;59072;42.144;25.200;2022-10-31T09:15:52;7.53;;;2.95;;
71148;SDS011;59072;42.144;25.200;2022-10-31T09:18:19;6.80;;;3.30;;
71148;SDS011;59072;42.144;25.200;2022-10-31T09:20:46;8.48;;;3.33;;
71148;SDS011;59072;42.144;25.200;2022-10-31T09:23:14;11.87;;;2.97;;
71148;SDS011;59072;42.144;25.200;2022-10-31T09:25:41;9.50;;;3.25;;
71148;SDS011;59072;42.144;25.200;2022-10-31T09:28:08;7.80;;;2.67;;
71148;SDS011;59072;42.144;25.200;2022-10-31T09:30:36;8.23;;;3.17;;
71148;SDS011;59072;42.144;25.200;2022-10-31T09:33:02;7.47;;;3.20;;
71148;SDS011;59072;42.144;25.200;2022-10-31T09:37:55;7.53;;;2.95;;
71148;SDS011;59072;42.144;25.200;2022-10-31T09:40:29;10.20;;;3.00;;
71148;SDS011;59072;42.144;25.200;2022-10-31T09:48:37;7.45;;;2.50;;
71148;SDS011;59072;42.144;25.200;2022-10-31T09:51:29;7.53;;;2.90;;
71148;SDS011;59072;42.144;25.200;2022-10-31T09:54:04;8.60;;;3.20;;
71148;SDS011;59072;42.144;25.200;2022-10-31T09:56:35;9.02;;;2.97;;
71148;SDS011;59072;42.144;25.200;2022-10-31T09:59:03;7.57;;;3.17;;
71148;SDS011;59072;42.144;25.200;2022-10-31T10:01:46;7.10;;;2.80;;
71148;SDS011;59072;42.144;25.200;2022-10-31T10:04:27;6.72;;;2.70;;
71148;SDS011;59072;42.144;25.200;2022-10-31T10:07:17;8.55;;;2.58;;
71148;SDS011;59072;42.144;25.200;2022-10-31T10:10:17;10.98;;;3.00;;
71148;SDS011;59072;42.144;25.200;2022-10-31T10:26:54;6.50;;;2.47;;
71148;SDS011;59072;42.144;25.200;2022-10-31T10:29:42;10.55;;;3.53;;
71148;SDS011;59072;42.144;25.200;2022-10-31T10:32:17;11.18;;;3.15;;
71148;SDS011;59072;42.144;25.200;2022-10-31T10:34:49;11.38;;;3.65;;
71148;SDS011;59072;42.144;25.200;2022-10-31T10:39:51;7.53;;;2.92;;
71148;SDS011;59072;42.144;25.200;2022-10-31T10:42:20;6.82;;;2.83;;
71148;SDS011;59072;42.144;25.200;2022-10-31T10:45:17;8.60;;;3.30;;
71148;SDS011;59072;42.144;25.200;2022-10-31T10:50:39;9.02;;;2.92;;
71148;SDS011;59072;42.144;25.200;2022-10-31T10:56:36;10.10;;;3.25;;
71148;SDS011;59072;42.144;25.200;2022-10-31T10:59:12;8.40;;;3.17;;
71148;SDS011;59072;42.144;25.200;2022-10-31T11:01:41;8.57;;;2.78;;
71148;SDS011;59072;42.144;25.200;2022-10-31T11:04:20;7.18;;;2.47;;
71148;SDS011;59072;42.144;25.200;2022-10-31T11:07:17;5.28;;;2.70;;
71148;SDS011;59072;42.144;25.200;2022-10-31T11:09:41;7.07;;;2.70;;
71148;SDS011;59072;42.144;25.200;2022-10-31T11:12:08;8.52;;;2.75;;
71148;SDS011;59072;42.144;25.200;2022-10-31T11:14:46;7.88;;;3.10;;
71148;SDS011;59072;42.144;25.200;2022-10-31T11:17:20;11.63;;;2.90;;
71148;SDS011;59072;42.144;25.200;2022-10-31T11:22:42;10.48;;;2.97;;
71148;SDS011;59072;42.144;25.200;2022-10-31T11:25:25;10.20;;;4.55;;
71148;SDS011;59072;42.144;25.200;2022-10-31T11:30:26;9.77;;;3.17;;
71148;SDS011;59072;42.144;25.200;2022-10-31T11:32:53;9.27;;;2.70;;
71148;SDS011;59072;42.144;25.200;2022-10-31T11:35:19;8.50;;;2.40;;
71148;SDS011;59072;42.144;25.200;2022-10-31T11:37:48;9.88;;;2.70;;
71148;SDS011;59072;42.144;25.200;2022-10-31T11:40:16;7.88;;;2.50;;
71148;SDS011;59072;42.144;25.200;2022-10-31T11:42:50;7.95;;;2.58;;
71148;SDS011;59072;42.144;25.200;2022-10-31T11:45:27;6.65;;;2.40;;
71148;SDS011;59072;42.144;25.200;2022-10-31T11:47:56;6.75;;;2.45;;
71148;SDS011;59072;42.144;25.200;2022-10-31T11:50:23;8.07;;;2.95;;
71148;SDS011;59072;42.144;25.200;2022-10-31T11:52:55;13.65;;;2.58;;
71148;SDS011;59072;42.144;25.200;2022-10-31T11:57:56;8.20;;;2.88;;
71148;SDS011;59072;42.144;25.200;2022-10-31T12:00:23;9.20;;;2.58;;
71148;SDS011;59072;42.144;25.200;2022-10-31T12:02:49;7.65;;;2.47;;
71148;SDS011;59072;42.144;25.200;2022-10-31T12:05:19;6.15;;;2.55;;
71148;SDS011;59072;42.144;25.200;2022-10-31T12:07:51;7.78;;;2.53;;
71148;SDS011;59072;42.144;25.200;2022-10-31T12:10:17;7.15;;;2.35;;
71148;SDS011;59072;42.144;25.200;2022-10-31T12:15:32;7.95;;;3.70;;
71148;SDS011;59072;42.144;25.200;2022-10-31T12:18:05;10.57;;;2.50;;
71148;SDS011;59072;42.144;25.200;2022-10-31T12:23:19;10.15;;;3.30;;
71148;SDS011;59072;42.144;25.200;2022-10-31T12:28:52;9.35;;;2.70;;
71148;SDS011;59072;42.144;25.200;2022-10-31T12:38:03;7.00;;;2.47;;
71148;SDS011;59072;42.144;25.200;2022-10-31T12:46:03;8.95;;;3.65;;
71148;SDS011;59072;42.144;25.200;2022-10-31T12:53:38;11.57;;;3.03;;
71148;SDS011;59072;42.144;25.200;2022-10-31T13:02:00;8.55;;;3.35;;
71148;SDS011;59072;42.144;25.200;2022-10-31T13:07:15;9.38;;;5.28;;
71148;SDS011;59072;42.144;25.200;2022-10-31T13:10:00;10.45;;;4.32;;
71148;SDS011;59072;42.144;25.200;2022-10-31T13:12:35;8.43;;;4.20;;
71148;SDS011;59072;42.144;25.200;2022-10-31T13:15:05;11.40;;;4.75;;
71148;SDS011;59072;42.144;25.200;2022-10-31T13:17:43;9.35;;;3.13;;
71148;SDS011;59072;42.144;25.200;2022-10-31T13:22:40;9.07;;;3.05;;
71148;SDS011;59072;42.144;25.200;2022-10-31T13:30:21;12.15;;;7.78;;
71148;SDS011;59072;42.144;25.200;2022-10-31T13:33:11;9.95;;;3.60;;
71148;SDS011;59072;42.144;25.200;2022-10-31T13:38:37;20.23;;;11.95;;
71148;SDS011;59072;42.144;25.200;2022-10-31T13:46:49;19.20;;;10.30;;
71148;SDS011;59072;42.144;25.200;2022-10-31T13:52:12;18.45;;;6.57;;
71148;SDS011;59072;42.144;25.200;2022-10-31T13:54:39;9.32;;;4.13;;
71148;SDS011;59072;42.144;25.200;2022-10-31T13:59:46;19.92;;;6.82;;
71148;SDS011;59072;42.144;25.200;2022-10-31T14:02:15;18.42;;;7.35;;
71148;SDS011;59072;42.144;25.200;2022-10-31T14:04:50;16.02;;;7.35;;
71148;SDS011;59072;42.144;25.200;2022-10-31T14:07:18;14.02;;;6.47;;
71148;SDS011;59072;42.144;25.200;2022-10-31T14:12:26;21.05;;;8.15;;
71148;SDS011;59072;42.144;25.200;2022-10-31T14:17:56;23.17;;;8.05;;
71148;SDS011;59072;42.144;25.200;2022-10-31T14:22:56;14.27;;;4.72;;
71148;SDS011;59072;42.144;25.200;2022-10-31T14:25:32;16.58;;;5.43;;
71148;SDS011;59072;42.144;25.200;2022-10-31T14:28:17;18.73;;;5.00;;
71148;SDS011;59072;42.144;25.200;2022-10-31T14:30:52;31.55;;;5.70;;
71148;SDS011;59072;42.144;25.200;2022-10-31T14:33:19;26.95;;;7.32;;
71148;SDS011;59072;42.144;25.200;2022-10-31T14:36:08;49.07;;;10.03;;
71148;SDS011;59072;42.144;25.200;2022-10-31T14:52:37;23.48;;;8.68;;
71148;SDS011;59072;42.144;25.200;2022-10-31T14:55:05;25.02;;;10.50;;
71148;SDS011;59072;42.144;25.200;2022-10-31T14:57:36;27.35;;;9.50;;
71148;SDS011;59072;42.144;25.200;2022-10-31T15:00:12;29.60;;;8.75;;
71148;SDS011;59072;42.144;25.200;2022-10-31T15:05:26;23.20;;;7.80;;
71148;SDS011;59072;42.144;25.200;2022-10-31T15:07:53;28.45;;;8.60;;
71148;SDS011;59072;42.144;25.200;2022-10-31T15:10:27;21.75;;;7.20;;
71148;SDS011;59072;42.144;25.200;2022-10-31T15:15:59;93.95;;;43.00;;
71148;SDS011;59072;42.144;25.200;2022-10-31T15:18:25;71.22;;;24.85;;
71148;SDS011;59072;42.144;25.200;2022-10-31T15:20:53;70.93;;;29.05;;
71148;SDS011;59072;42.144;25.200;2022-10-31T15:23:24;79.72;;;48.78;;
71148;SDS011;59072;42.144;25.200;2022-10-31T15:25:59;50.83;;;23.23;;
71148;SDS011;59072;42.144;25.200;2022-10-31T15:28:25;39.45;;;16.67;;
71148;SDS011;59072;42.144;25.200;2022-10-31T15:30:55;44.85;;;17.05;;
71148;SDS011;59072;42.144;25.200;2022-10-31T15:33:22;36.83;;;12.93;;
71148;SDS011;59072;42.144;25.200;2022-10-31T15:36:00;56.15;;;21.15;;
71148;SDS011;59072;42.144;25.200;2022-10-31T15:38:27;57.63;;;27.87;;
71148;SDS011;59072;42.144;25.200;2022-10-31T15:41:04;51.22;;;24.10;;
71148;SDS011;59072;42.144;25.200;2022-10-31T15:43:44;52.42;;;26.10;;
71148;SDS011;59072;42.144;25.200;2022-10-31T15:46:11;49.15;;;22.08;;
71148;SDS011;59072;42.144;25.200;2022-10-31T15:48:36;58.58;;;27.40;;
71148;SDS011;59072;42.144;25.200;2022-10-31T15:51:03;55.67;;;25.50;;
71148;SDS011;59072;42.144;25.200;2022-10-31T15:56:22;31.77;;;10.63;;
71148;SDS011;59072;42.144;25.200;2022-10-31T15:58:51;49.38;;;11.93;;
71148;SDS011;59072;42.144;25.200;2022-10-31T16:01:22;36.10;;;9.52;;
71148;SDS011;59072;42.144;25.200;2022-10-31T16:03:59;32.28;;;11.50;;
71148;SDS011;59072;42.144;25.200;2022-10-31T16:06:55;26.58;;;10.10;;
71148;SDS011;59072;42.144;25.200;2022-10-31T16:09:24;48.70;;;19.95;;
71148;SDS011;59072;42.144;25.200;2022-10-31T16:11:50;63.03;;;32.28;;
71148;SDS011;59072;42.144;25.200;2022-10-31T16:14:16;41.85;;;22.20;;
71148;SDS011;59072;42.144;25.200;2022-10-31T16:16:51;30.85;;;13.85;;
71148;SDS011;59072;42.144;25.200;2022-10-31T16:19:25;29.65;;;14.63;;
71148;SDS011;59072;42.144;25.200;2022-10-31T16:21:55;58.30;;;30.73;;
71148;SDS011;59072;42.144;25.200;2022-10-31T16:24:31;78.60;;;36.83;;
71148;SDS011;59072;42.144;25.200;2022-10-31T16:27:03;59.50;;;30.08;;
71148;SDS011;59072;42.144;25.200;2022-10-31T16:29:43;61.95;;;28.63;;
71148;SDS011;59072;42.144;25.200;2022-10-31T16:32:27;70.68;;;32.30;;
71148;SDS011;59072;42.144;25.200;2022-10-31T16:37:52;66.88;;;31.15;;
71148;SDS011;59072;42.144;25.200;2022-10-31T16:40:17;72.03;;;33.58;;
71148;SDS011;59072;42.144;25.200;2022-10-31T16:42:43;48.83;;;22.50;;
71148;SDS011;59072;42.144;25.200;2022-10-31T16:45:13;34.83;;;15.85;;
71148;SDS011;59072;42.144;25.200;2022-10-31T16:47:41;24.88;;;10.30;;
71148;SDS011;59072;42.144;25.200;2022-10-31T16:50:14;12.60;;;5.35;;
71148;SDS011;59072;42.144;25.200;2022-10-31T16:52:50;12.00;;;5.00;;
71148;SDS011;59072;42.144;25.200;2022-10-31T16:55:17;12.50;;;5.15;;
71148;SDS011;59072;42.144;25.200;2022-10-31T16:57:48;13.77;;;4.60;;
71148;SDS011;59072;42.144;25.200;2022-10-31T17:00:18;12.27;;;5.13;;
71148;SDS011;59072;42.144;25.200;2022-10-31T17:02:45;13.20;;;4.82;;
71148;SDS011;59072;42.144;25.200;2022-10-31T17:05:14;10.25;;;3.85;;
71148;SDS011;59072;42.144;25.200;2022-10-31T17:07:40;10.30;;;3.47;;
71148;SDS011;59072;42.144;25.200;2022-10-31T17:10:06;9.45;;;3.72;;
71148;SDS011;59072;42.144;25.200;2022-10-31T17:12:33;10.48;;;5.07;;
71148;SDS011;59072;42.144;25.200;2022-10-31T17:14:58;13.00;;;4.35;;
71148;SDS011;59072;42.144;25.200;2022-10-31T17:17:24;8.90;;;3.92;;
71148;SDS011;59072;42.144;25.200;2022-10-31T17:19:50;8.50;;;4.10;;
71148;SDS011;59072;42.144;25.200;2022-10-31T17:22:15;10.60;;;5.40;;
71148;SDS011;59072;42.144;25.200;2022-10-31T17:24:41;11.65;;;6.20;;
71148;SDS011;59072;42.144;25.200;2022-10-31T17:27:06;14.88;;;10.40;;